createdAt,value
2022-09-20T00:00:05.476Z,0.00
2022-09-20T00:01:05.438Z,0.00
2022-09-20T00:02:05.407Z,0.00
2022-09-20T00:03:05.398Z,0.00
2022-09-20T00:04:05.950Z,0.00
2022-09-20T00:05:05.475Z,0.00
2022-09-20T00:06:05.370Z,0.00
2022-09-20T00:07:05.351Z,0.00
2022-09-20T00:08:05.336Z,0.00
2022-09-20T00:09:05.324Z,0.00
2022-09-20T00:10:05.353Z,0.00
2022-09-20T00:11:05.328Z,0.00
2022-09-20T00:12:05.295Z,0.00
2022-09-20T00:13:05.283Z,0.00
2022-09-20T00:14:05.278Z,0.00
2022-09-20T00:15:05.302Z,0.00
2022-09-20T00:16:05.279Z,0.00
2022-09-20T00:17:05.272Z,0.00
2022-09-20T00:18:05.229Z,0.00
2022-09-20T00:19:05.354Z,0.00
2022-09-20T00:20:05.203Z,0.00
2022-09-20T00:21:05.228Z,0.00
2022-09-20T00:22:05.194Z,0.00
2022-09-20T00:23:05.164Z,0.00
2022-09-20T00:24:05.145Z,0.00
2022-09-20T00:25:05.152Z,0.00
2022-09-20T00:26:05.188Z,0.00
2022-09-20T00:27:05.119Z,0.00
2022-09-20T00:28:05.107Z,0.00
2022-09-20T00:29:05.104Z,0.00
2022-09-20T00:30:05.083Z,0.00
2022-09-20T00:31:05.098Z,0.00
2022-09-20T00:32:05.106Z,0.00
2022-09-20T00:33:05.047Z,0.00
2022-09-20T00:34:05.128Z,0.00
2022-09-20T00:35:05.025Z,0.00
2022-09-20T00:36:05.056Z,0.00
2022-09-20T00:37:05.010Z,0.00
2022-09-20T00:38:05.004Z,0.00
2022-09-20T00:39:04.983Z,0.00
2022-09-20T00:40:04.994Z,0.00
2022-09-20T00:41:04.983Z,0.00
2022-09-20T00:42:04.973Z,0.00
2022-09-20T00:43:04.948Z,0.00
2022-09-20T00:44:04.917Z,0.00
2022-09-20T00:45:04.898Z,0.00
2022-09-20T00:46:05.026Z,0.00
2022-09-20T00:47:04.876Z,0.00
2022-09-20T00:48:04.873Z,0.00
2022-09-20T00:49:05.045Z,0.00
2022-09-20T00:50:04.868Z,0.00
2022-09-20T00:51:04.895Z,0.00
2022-09-20T00:52:04.844Z,0.00
2022-09-20T00:53:04.816Z,0.00
2022-09-20T00:54:04.831Z,0.00
2022-09-20T00:55:04.809Z,0.00
2022-09-20T00:56:04.844Z,0.00
2022-09-20T00:57:04.830Z,0.00
2022-09-20T00:58:04.758Z,0.00
2022-09-20T00:59:04.772Z,0.00
2022-09-20T01:00:04.734Z,0.00
2022-09-20T01:01:04.825Z,0.00
2022-09-20T01:02:04.782Z,0.00
2022-09-20T01:03:04.703Z,0.00
2022-09-20T01:04:04.778Z,0.00
2022-09-20T01:05:04.685Z,0.00
2022-09-20T01:06:04.712Z,0.00
2022-09-20T01:07:04.665Z,0.00
2022-09-20T01:08:04.682Z,0.00
2022-09-20T01:09:04.653Z,0.00
2022-09-20T01:10:04.627Z,0.00
2022-09-20T01:11:04.660Z,0.00
2022-09-20T01:12:04.606Z,0.00
2022-09-20T01:13:04.607Z,0.00
2022-09-20T01:14:04.592Z,0.00
2022-09-20T01:15:04.587Z,0.00
2022-09-20T01:16:04.649Z,0.00
2022-09-20T01:17:04.570Z,0.00
2022-09-20T01:18:04.534Z,0.00
2022-09-20T01:19:04.516Z,0.00
2022-09-20T01:20:04.511Z,0.00
2022-09-20T01:21:04.531Z,0.00
2022-09-20T01:22:04.511Z,0.00
2022-09-20T01:23:04.507Z,0.00
2022-09-20T01:24:04.488Z,0.00
2022-09-20T01:25:04.479Z,0.00
2022-09-20T01:26:04.495Z,0.00
2022-09-20T01:27:04.448Z,0.00
2022-09-20T01:28:04.430Z,0.00
2022-09-20T01:29:04.418Z,0.00
2022-09-20T01:30:04.406Z,0.00
2022-09-20T01:31:04.434Z,0.00
2022-09-20T01:32:04.461Z,0.00
2022-09-20T01:33:04.390Z,0.00
2022-09-20T01:34:04.379Z,0.00
2022-09-20T01:35:04.351Z,0.00
2022-09-20T01:36:04.367Z,0.00
2022-09-20T01:37:04.328Z,0.00
2022-09-20T01:38:04.327Z,0.00
2022-09-20T01:39:04.300Z,0.00
2022-09-20T01:40:04.369Z,0.00
2022-09-20T01:41:04.331Z,0.00
2022-09-20T01:42:04.267Z,0.00
2022-09-20T01:43:04.292Z,0.00
2022-09-20T01:44:04.245Z,0.00
2022-09-20T01:45:04.252Z,0.00
2022-09-20T01:46:04.343Z,0.00
2022-09-20T01:47:04.225Z,0.00
2022-09-20T01:48:04.208Z,0.00
2022-09-20T01:49:04.199Z,0.00
2022-09-20T01:50:04.174Z,0.00
2022-09-20T01:51:04.189Z,0.00
2022-09-20T01:52:04.150Z,0.00
2022-09-20T01:53:04.148Z,0.00
2022-09-20T01:54:04.151Z,0.00
2022-09-20T01:55:04.134Z,0.00
2022-09-20T01:56:04.151Z,0.00
2022-09-20T01:57:04.106Z,0.00
2022-09-20T01:58:04.093Z,0.00
2022-09-20T01:59:22.474Z,0.00
2022-09-20T02:00:05.093Z,0.00
2022-09-20T02:01:04.145Z,0.00
2022-09-20T02:02:04.110Z,0.00
2022-09-20T02:03:04.046Z,0.00
2022-09-20T02:04:04.032Z,0.00
2022-09-20T02:05:04.025Z,0.00
2022-09-20T02:06:04.041Z,0.00
2022-09-20T02:07:03.988Z,0.00
2022-09-20T02:08:03.992Z,0.00
2022-09-20T02:09:03.957Z,0.00
2022-09-20T02:10:03.976Z,0.00
2022-09-20T02:11:03.994Z,0.00
2022-09-20T02:12:03.953Z,0.00
2022-09-20T02:13:03.928Z,0.00
2022-09-20T02:14:03.909Z,0.00
2022-09-20T02:15:03.922Z,0.00
2022-09-20T02:16:03.917Z,0.00
2022-09-20T02:17:03.888Z,0.00
2022-09-20T02:18:03.876Z,0.00
2022-09-20T02:19:03.863Z,0.00
2022-09-20T02:20:03.899Z,0.00
2022-09-20T02:21:03.835Z,0.00
2022-09-20T02:22:03.812Z,0.00
2022-09-20T02:23:03.849Z,0.00
2022-09-20T02:24:03.782Z,0.00
2022-09-20T02:25:03.820Z,0.00
2022-09-20T02:26:03.797Z,0.00
2022-09-20T02:27:03.774Z,0.00
2022-09-20T02:28:03.762Z,0.00
2022-09-20T02:29:03.769Z,0.00
2022-09-20T02:30:03.741Z,0.00
2022-09-20T02:31:03.772Z,0.00
2022-09-20T02:32:03.736Z,0.00
2022-09-20T02:33:03.695Z,0.00
2022-09-20T02:34:03.679Z,0.00
2022-09-20T02:35:03.664Z,0.00
2022-09-20T02:36:03.688Z,0.00
2022-09-20T02:37:03.653Z,0.00
2022-09-20T02:38:03.644Z,0.00
2022-09-20T02:39:03.627Z,0.00
2022-09-20T02:40:03.721Z,0.00
2022-09-20T02:41:03.640Z,0.00
2022-09-20T02:42:03.598Z,0.00
2022-09-20T02:43:03.584Z,0.00
2022-09-20T02:44:03.600Z,0.00
2022-09-20T02:45:03.566Z,0.00
2022-09-20T02:46:03.626Z,0.00
2022-09-20T02:47:03.556Z,0.00
2022-09-20T02:48:03.542Z,0.00
2022-09-20T02:49:03.513Z,0.00
2022-09-20T02:50:03.500Z,0.00
2022-09-20T02:51:03.532Z,0.00
2022-09-20T02:52:03.483Z,0.00
2022-09-20T02:53:03.464Z,0.00
2022-09-20T02:54:03.438Z,0.00
2022-09-20T02:55:03.431Z,0.00
2022-09-20T02:56:03.454Z,0.00
2022-09-20T02:57:03.420Z,0.00
2022-09-20T02:58:03.421Z,0.00
2022-09-20T02:59:03.412Z,0.00
2022-09-20T03:00:03.395Z,0.00
2022-09-20T03:01:03.476Z,0.00
2022-09-20T03:02:03.437Z,0.00
2022-09-20T03:03:03.349Z,0.00
2022-09-20T03:04:03.364Z,0.00
2022-09-20T03:05:03.351Z,0.00
2022-09-20T03:06:03.370Z,0.00
2022-09-20T03:07:03.317Z,0.00
2022-09-20T03:08:03.390Z,0.00
2022-09-20T03:09:03.293Z,0.00
2022-09-20T03:10:03.274Z,0.00
2022-09-20T03:11:03.308Z,0.00
2022-09-20T03:12:03.263Z,0.00
2022-09-20T03:13:03.277Z,0.00
2022-09-20T03:14:03.237Z,0.00
2022-09-20T03:15:03.246Z,0.00
2022-09-20T03:16:03.295Z,0.00
2022-09-20T03:17:03.288Z,0.00
2022-09-20T03:18:03.195Z,0.00
2022-09-20T03:19:03.184Z,0.00
2022-09-20T03:20:03.184Z,0.00
2022-09-20T03:21:03.210Z,0.00
2022-09-20T03:22:03.157Z,0.00
2022-09-20T03:23:03.140Z,0.00
2022-09-20T03:24:03.104Z,0.00
2022-09-20T03:25:03.096Z,0.00
2022-09-20T03:26:03.122Z,0.00
2022-09-20T03:27:03.100Z,0.00
2022-09-20T03:28:03.072Z,0.00
2022-09-20T03:29:03.075Z,0.00
2022-09-20T03:30:03.054Z,0.00
2022-09-20T03:31:03.088Z,0.00
2022-09-20T03:32:03.120Z,0.00
2022-09-20T03:33:03.021Z,0.00
2022-09-20T03:34:03.009Z,0.00
2022-09-20T03:35:03.009Z,0.00
2022-09-20T03:36:03.023Z,0.00
2022-09-20T03:37:02.979Z,0.00
2022-09-20T03:38:02.972Z,0.00
2022-09-20T03:39:02.967Z,0.00
2022-09-20T03:40:03.019Z,0.00
2022-09-20T03:41:02.964Z,0.00
2022-09-20T03:42:02.917Z,0.00
2022-09-20T03:43:02.918Z,0.00
2022-09-20T03:44:02.897Z,0.00
2022-09-20T03:45:02.900Z,0.00
2022-09-20T03:46:03.011Z,0.00
2022-09-20T03:47:02.880Z,0.00
2022-09-20T03:48:02.858Z,0.00
2022-09-20T03:49:02.842Z,0.00
2022-09-20T03:50:02.840Z,0.00
2022-09-20T03:51:02.859Z,0.00
2022-09-20T03:52:02.808Z,0.00
2022-09-20T03:53:02.803Z,0.00
2022-09-20T03:54:02.789Z,0.00
2022-09-20T03:55:02.783Z,0.00
2022-09-20T03:56:02.794Z,0.00
2022-09-20T03:57:02.743Z,0.00
2022-09-20T03:58:06.800Z,0.00
2022-09-20T03:59:03.722Z,0.00
2022-09-20T04:00:02.711Z,0.00
2022-09-20T04:01:02.794Z,0.00
2022-09-20T04:02:02.742Z,0.00
2022-09-20T04:03:02.681Z,0.00
2022-09-20T04:04:02.699Z,0.00
2022-09-20T04:05:02.649Z,0.00
2022-09-20T04:06:02.684Z,0.00
2022-09-20T04:07:02.637Z,0.00
2022-09-20T04:08:02.644Z,0.00
2022-09-20T04:09:02.609Z,0.00
2022-09-20T04:10:02.613Z,0.00
2022-09-20T04:11:02.641Z,0.00
2022-09-20T04:12:02.568Z,4.00
2022-09-20T04:13:02.586Z,4.00
2022-09-20T04:14:02.553Z,4.00
2022-09-20T04:15:02.558Z,4.00
2022-09-20T04:16:02.592Z,4.00
2022-09-20T04:17:02.598Z,8.00
2022-09-20T04:18:02.513Z,8.00
2022-09-20T04:19:02.494Z,4.00
2022-09-20T04:20:02.490Z,12.00
2022-09-20T04:21:02.530Z,12.00
2022-09-20T04:22:02.483Z,16.00
2022-09-20T04:23:02.455Z,20.00
2022-09-20T04:24:02.452Z,20.00
2022-09-20T04:25:02.437Z,24.00
2022-09-20T04:26:02.461Z,28.00
2022-09-20T04:27:02.405Z,36.00
2022-09-20T04:28:02.397Z,40.00
2022-09-20T04:29:02.388Z,44.00
2022-09-20T04:30:02.375Z,56.00
2022-09-20T04:31:02.424Z,64.00
2022-09-20T04:32:02.399Z,72.00
2022-09-20T04:33:02.359Z,84.00
2022-09-20T04:34:02.335Z,100.00
2022-09-20T04:35:02.320Z,116.00
2022-09-20T04:36:02.335Z,136.00
2022-09-20T04:37:02.300Z,156.00
2022-09-20T04:38:02.294Z,176.00
2022-09-20T04:39:02.285Z,200.00
2022-09-20T04:40:02.328Z,228.00
2022-09-20T04:41:02.313Z,256.00
2022-09-20T04:42:02.303Z,284.00
2022-09-20T04:43:02.248Z,316.00
2022-09-20T04:44:02.242Z,348.00
2022-09-20T04:45:02.255Z,388.00
2022-09-20T04:46:02.283Z,424.00
2022-09-20T04:47:02.202Z,468.00
2022-09-20T04:48:02.164Z,512.00
2022-09-20T04:49:02.186Z,552.00
2022-09-20T04:50:02.195Z,600.00
2022-09-20T04:51:02.163Z,652.00
2022-09-20T04:52:02.131Z,716.00
2022-09-20T04:53:02.143Z,784.00
2022-09-20T04:54:02.109Z,872.00
2022-09-20T04:55:02.147Z,972.00
2022-09-20T04:56:02.088Z,1040.00
2022-09-20T04:57:02.060Z,1080.00
2022-09-20T04:58:02.076Z,1120.00
2022-09-20T04:59:02.056Z,1168.00
2022-09-20T05:00:02.056Z,1228.00
2022-09-20T05:01:02.090Z,1284.00
2022-09-20T05:02:02.062Z,1300.00
2022-09-20T05:03:02.012Z,1296.00
2022-09-20T05:04:01.997Z,1316.00
2022-09-20T05:05:02.042Z,1356.00
2022-09-20T05:06:01.976Z,1412.00
2022-09-20T05:07:01.949Z,1476.00
2022-09-20T05:08:01.952Z,1532.00
2022-09-20T05:09:02.181Z,1580.00
2022-09-20T05:10:01.942Z,1608.00
2022-09-20T05:11:01.940Z,1636.00
2022-09-20T05:12:01.928Z,1692.00
2022-09-20T05:13:01.893Z,1768.00
2022-09-20T05:14:01.896Z,1820.00
2022-09-20T05:15:01.878Z,1872.00
2022-09-20T05:16:01.910Z,1936.00
2022-09-20T05:17:01.909Z,2000.00
2022-09-20T05:18:01.825Z,2052.00
2022-09-20T05:19:01.833Z,2120.00
2022-09-20T05:20:01.808Z,2192.00
2022-09-20T05:21:01.836Z,2260.00
2022-09-20T05:22:01.795Z,2312.00
2022-09-20T05:23:01.797Z,2344.00
2022-09-20T05:24:01.763Z,2416.00
2022-09-20T05:25:01.788Z,2512.00
2022-09-20T05:26:01.796Z,2596.00
2022-09-20T05:27:01.731Z,2700.00
2022-09-20T05:28:01.728Z,2816.00
2022-09-20T05:29:01.699Z,2972.00
2022-09-20T05:30:04.933Z,3180.00
2022-09-20T05:31:01.740Z,3444.00
2022-09-20T05:32:01.761Z,3712.00
2022-09-20T05:33:01.675Z,3948.00
2022-09-20T05:34:01.668Z,4220.00
2022-09-20T05:35:01.651Z,4492.00
2022-09-20T05:36:01.676Z,4784.00
2022-09-20T05:37:01.625Z,5108.00
2022-09-20T05:38:01.613Z,5368.00
2022-09-20T05:39:03.450Z,5608.00
2022-09-20T05:40:01.649Z,5852.00
2022-09-20T05:41:01.623Z,6004.00
2022-09-20T05:42:01.570Z,6196.00
2022-09-20T05:43:01.569Z,6476.00
2022-09-20T05:44:01.554Z,6708.00
2022-09-20T05:45:01.556Z,6972.00
2022-09-20T05:46:01.632Z,7280.00
2022-09-20T05:47:01.527Z,7704.00
2022-09-20T05:48:01.525Z,8108.00
2022-09-20T05:49:01.498Z,7988.00
2022-09-20T05:50:01.477Z,7728.00
2022-09-20T05:51:03.710Z,7560.00
2022-09-20T05:52:01.443Z,7508.00
2022-09-20T05:53:01.457Z,7268.00
2022-09-20T05:54:01.428Z,7280.00
2022-09-20T05:55:01.447Z,7396.00
2022-09-20T05:56:01.475Z,7360.00
2022-09-20T05:57:01.434Z,7400.00
2022-09-20T05:58:01.417Z,7464.00
2022-09-20T05:59:01.380Z,7684.00
2022-09-20T06:00:01.345Z,7972.00
2022-09-20T06:01:01.426Z,8108.00
2022-09-20T06:02:01.416Z,7868.00
2022-09-20T06:03:01.321Z,7720.00
2022-09-20T06:04:01.330Z,7792.00
2022-09-20T06:05:01.318Z,7980.00
2022-09-20T06:06:01.330Z,8364.00
2022-09-20T06:07:01.292Z,9472.00
2022-09-20T06:08:01.275Z,10536.00
2022-09-20T06:09:01.282Z,10856.00
2022-09-20T06:10:01.245Z,10968.00
2022-09-20T06:11:01.275Z,10948.00
2022-09-20T06:12:01.234Z,10716.00
2022-09-20T06:13:01.214Z,10436.00
2022-09-20T06:14:01.212Z,10620.00
2022-09-20T06:15:01.191Z,10648.00
2022-09-20T06:16:01.223Z,10848.00
2022-09-20T06:17:01.172Z,11144.00
2022-09-20T06:18:01.209Z,11364.00
2022-09-20T06:19:01.172Z,11560.00
2022-09-20T06:20:01.133Z,11840.00
2022-09-20T06:21:01.159Z,12048.00
2022-09-20T06:22:03.717Z,12020.00
2022-09-20T06:23:01.115Z,12624.00
2022-09-20T06:24:01.093Z,13672.00
2022-09-20T06:25:01.113Z,14772.00
2022-09-20T06:26:01.108Z,15684.00
2022-09-20T06:27:01.072Z,15480.00
2022-09-20T06:28:01.043Z,14772.00
2022-09-20T06:29:01.044Z,14732.00
2022-09-20T06:30:01.042Z,14408.00
2022-09-20T06:31:01.051Z,14236.00
2022-09-20T06:32:00.993Z,14124.00
2022-09-20T06:33:00.985Z,13836.00
2022-09-20T06:34:00.974Z,13428.00
2022-09-20T06:35:00.978Z,13284.00
2022-09-20T06:36:00.998Z,13160.00
2022-09-20T06:37:00.955Z,13132.00
2022-09-20T06:38:00.948Z,13344.00
2022-09-20T06:39:00.939Z,14124.00
2022-09-20T06:40:01.013Z,15148.00
2022-09-20T06:41:00.942Z,16400.00
2022-09-20T06:42:00.885Z,17312.00
2022-09-20T06:43:00.870Z,17536.00
2022-09-20T06:44:00.868Z,17504.00
2022-09-20T06:45:00.856Z,17600.00
2022-09-20T06:46:00.928Z,16988.00
2022-09-20T06:47:00.847Z,15912.00
2022-09-20T06:48:00.830Z,15168.00
2022-09-20T06:49:00.836Z,14880.00
2022-09-20T06:50:00.804Z,14340.00
2022-09-20T06:51:00.820Z,13948.00
2022-09-20T06:52:00.771Z,13752.00
2022-09-20T06:53:00.771Z,13360.00
2022-09-20T06:54:00.757Z,12876.00
2022-09-20T06:55:00.749Z,12728.00
2022-09-20T06:56:00.754Z,12580.00
2022-09-20T06:57:00.715Z,12068.00
2022-09-20T06:58:00.710Z,11812.00
2022-09-20T06:59:00.706Z,11644.00
2022-09-20T07:00:00.708Z,12680.00
2022-09-20T07:01:00.731Z,13796.00
2022-09-20T07:02:00.681Z,14660.00
2022-09-20T07:03:00.665Z,13164.00
2022-09-20T07:04:00.627Z,11644.00
2022-09-20T07:05:00.647Z,11508.00
2022-09-20T07:06:00.681Z,11916.00
2022-09-20T07:07:00.592Z,12900.00
2022-09-20T07:08:00.601Z,15780.00
2022-09-20T07:09:00.599Z,18432.00
2022-09-20T07:10:00.581Z,18656.00
2022-09-20T07:11:00.598Z,18080.00
2022-09-20T07:12:00.557Z,19008.00
2022-09-20T07:13:00.530Z,21088.00
2022-09-20T07:14:00.549Z,21280.00
2022-09-20T07:15:00.515Z,21216.00
2022-09-20T07:16:00.538Z,21728.00
2022-09-20T07:17:00.490Z,23840.00
2022-09-20T07:18:00.505Z,25088.00
2022-09-20T07:19:00.476Z,25952.00
2022-09-20T07:20:00.467Z,26688.00
2022-09-20T07:21:00.471Z,23968.00
2022-09-20T07:22:00.442Z,22976.00
2022-09-20T07:23:00.446Z,22880.00
2022-09-20T07:24:00.418Z,23104.00
2022-09-20T07:25:00.404Z,22848.00
2022-09-20T07:26:00.480Z,23936.00
2022-09-20T07:27:00.410Z,25312.00
2022-09-20T07:28:00.402Z,24416.00
2022-09-20T07:29:00.355Z,22720.00
2022-09-20T07:30:00.360Z,29568.00
2022-09-20T07:31:00.404Z,20768.00
2022-09-20T07:32:00.374Z,22336.00
2022-09-20T07:33:00.312Z,24000.00
2022-09-20T07:34:00.290Z,24416.00
2022-09-20T07:35:00.268Z,24448.00
2022-09-20T07:36:00.317Z,25152.00
2022-09-20T07:37:00.263Z,26880.00
2022-09-20T07:38:00.265Z,28896.00
2022-09-20T07:39:00.248Z,30624.00
2022-09-20T07:40:00.305Z,30944.00
2022-09-20T07:41:00.250Z,30816.00
2022-09-20T07:42:00.226Z,28416.00
2022-09-20T07:43:00.242Z,24896.00
2022-09-20T07:44:00.189Z,23456.00
2022-09-20T07:45:00.162Z,22688.00
2022-09-20T07:46:00.253Z,22816.00
2022-09-20T07:47:00.151Z,22720.00
2022-09-20T07:48:00.148Z,23296.00
2022-09-20T07:49:00.157Z,24096.00
2022-09-20T07:50:00.166Z,23680.00
2022-09-20T07:51:00.142Z,23552.00
2022-09-20T07:52:00.097Z,23680.00
2022-09-20T07:53:00.131Z,23616.00
2022-09-20T07:54:00.076Z,24640.00
2022-09-20T07:55:00.077Z,25248.00
2022-09-20T07:56:00.085Z,25408.00
2022-09-20T07:57:00.027Z,25920.00
2022-09-20T07:58:00.052Z,26880.00
2022-09-20T07:59:00.021Z,28448.00
2022-09-20T08:00:00.030Z,27648.00
2022-09-20T08:01:00.055Z,29696.00
2022-09-20T08:02:00.050Z,33696.00
2022-09-20T08:02:59.962Z,18656.00
2022-09-20T08:03:59.954Z,16892.00
2022-09-20T08:04:59.937Z,16236.00
2022-09-20T08:05:59.982Z,15372.00
2022-09-20T08:06:59.943Z,15264.00
2022-09-20T08:07:59.915Z,16412.00
2022-09-20T08:08:59.890Z,17088.00
2022-09-20T08:09:59.910Z,17068.00
2022-09-20T08:10:59.925Z,17076.00
2022-09-20T08:14:05.133Z,17164.00
2022-09-20T08:14:05.934Z,17620.00
2022-09-20T08:15:00.873Z,20096.00
2022-09-20T08:15:59.863Z,24832.00
2022-09-20T08:16:59.850Z,27168.00
2022-09-20T08:17:59.792Z,34912.00
2022-09-20T08:18:59.790Z,32832.00
2022-09-20T08:19:59.776Z,25952.00
2022-09-20T08:20:59.812Z,22048.00
2022-09-20T08:21:59.752Z,21920.00
2022-09-20T08:23:22.114Z,29376.00
2022-09-20T08:24:00.747Z,21920.00
2022-09-20T08:24:59.708Z,37632.00
2022-09-20T08:25:59.765Z,25376.00
2022-09-20T08:26:59.708Z,23552.00
2022-09-20T08:27:59.702Z,23296.00
2022-09-20T08:28:59.684Z,18912.00
2022-09-20T08:29:59.673Z,17000.00
2022-09-20T08:30:59.688Z,15728.00
2022-09-20T08:31:59.672Z,15952.00
2022-09-20T08:32:59.667Z,18056.00
2022-09-20T08:33:59.627Z,41568.00
2022-09-20T08:34:59.612Z,48320.00
2022-09-20T08:35:59.633Z,52352.00
2022-09-20T08:36:59.582Z,54144.00
2022-09-20T08:39:57.107Z,25024.00
2022-09-20T08:40:00.758Z,33792.00
2022-09-20T08:40:59.589Z,48288.00
2022-09-20T08:41:59.526Z,71392.00
2022-09-20T08:42:59.520Z,66272.00
2022-09-20T08:43:59.486Z,64000.00
2022-09-20T08:44:59.568Z,35392.00
2022-09-20T08:45:59.746Z,34368.00
2022-09-20T08:46:59.481Z,43936.00
2022-09-20T08:47:59.473Z,18448.00
2022-09-20T08:48:59.456Z,41024.00
2022-09-20T08:49:59.484Z,54240.00
2022-09-20T08:50:59.953Z,63072.00
2022-09-20T08:51:59.420Z,66304.00
2022-09-20T08:53:00.695Z,73472.00
2022-09-20T08:53:59.423Z,74176.00
2022-09-20T08:54:59.419Z,79680.00
2022-09-20T08:55:59.408Z,79584.00
2022-09-20T08:56:59.359Z,82752.00
2022-09-20T08:57:59.368Z,84992.00
2022-09-20T08:58:59.335Z,84192.00
2022-09-20T08:59:59.375Z,37184.00
2022-09-20T09:00:59.361Z,34176.00
2022-09-20T09:01:59.344Z,102944.00
2022-09-20T09:02:59.302Z,108768.00
2022-09-20T09:03:59.275Z,72384.00
2022-09-20T09:04:59.275Z,42080.00
2022-09-20T09:05:59.249Z,26272.00
2022-09-20T09:06:59.228Z,24000.00
2022-09-20T09:07:59.240Z,20064.00
2022-09-20T09:08:59.212Z,16892.00
2022-09-20T09:09:59.243Z,13080.00
2022-09-20T09:10:59.235Z,10868.00
2022-09-20T09:11:59.199Z,10328.00
2022-09-20T09:12:59.176Z,9712.00
2022-09-20T09:13:59.166Z,10520.00
2022-09-20T09:14:59.176Z,13952.00
2022-09-20T09:15:59.144Z,16996.00
2022-09-20T09:16:59.198Z,16324.00
2022-09-20T09:17:59.127Z,19712.00
2022-09-20T09:18:59.126Z,22624.00
2022-09-20T09:19:59.148Z,41312.00
2022-09-20T09:20:59.086Z,60928.00
2022-09-20T09:21:59.083Z,67744.00
2022-09-20T09:22:59.063Z,58464.00
2022-09-20T09:23:59.057Z,19040.00
2022-09-20T09:24:59.101Z,75008.00
2022-09-20T09:25:59.038Z,32448.00
2022-09-20T09:26:59.009Z,144288.00
2022-09-20T09:27:59.014Z,135392.00
2022-09-20T09:28:58.990Z,124928.00
2022-09-20T09:29:58.971Z,116992.00
2022-09-20T09:30:59.013Z,106656.00
2022-09-20T09:31:59.048Z,45536.00
2022-09-20T09:32:58.950Z,23168.00
2022-09-20T09:33:58.958Z,29024.00
2022-09-20T09:34:58.915Z,71936.00
2022-09-20T09:35:58.943Z,68960.00
2022-09-20T09:36:58.890Z,34304.00
2022-09-20T09:37:58.942Z,67648.00
2022-09-20T09:38:58.869Z,65600.00
2022-09-20T09:39:58.977Z,62880.00
2022-09-20T09:40:58.902Z,23776.00
2022-09-20T09:41:58.853Z,21728.00
2022-09-20T09:42:58.877Z,24672.00
2022-09-20T09:43:58.834Z,32576.00
2022-09-20T09:44:58.807Z,55296.00
2022-09-20T09:45:58.866Z,39264.00
2022-09-20T09:46:58.796Z,35456.00
2022-09-20T09:47:58.767Z,41408.00
2022-09-20T09:48:58.780Z,36224.00
2022-09-20T09:50:01.631Z,33280.00
2022-09-20T09:50:59.789Z,32544.00
2022-09-20T09:51:58.739Z,24576.00
2022-09-20T09:52:58.740Z,26912.00
2022-09-20T09:53:58.715Z,29056.00
2022-09-20T09:55:01.213Z,46208.00
2022-09-20T09:55:58.760Z,36672.00
2022-09-20T09:56:58.699Z,41248.00
2022-09-20T09:57:58.675Z,28928.00
2022-09-20T09:58:58.650Z,22944.00
2022-09-20T09:59:58.725Z,18240.00
2022-09-20T10:00:58.736Z,16120.00
2022-09-20T10:01:58.698Z,16044.00
2022-09-20T10:02:58.639Z,16884.00
2022-09-20T10:03:58.644Z,18880.00
2022-09-20T10:04:58.594Z,22560.00
2022-09-20T10:05:58.623Z,55776.00
2022-09-20T10:06:58.540Z,55904.00
2022-09-20T10:07:58.545Z,54016.00
2022-09-20T10:08:58.569Z,50176.00
2022-09-20T10:09:58.540Z,21888.00
2022-09-20T10:10:58.577Z,28032.00
2022-09-20T10:11:58.511Z,47008.00
2022-09-20T10:12:58.509Z,48704.00
2022-09-20T10:13:58.501Z,41408.00
2022-09-20T10:14:58.478Z,25728.00
2022-09-20T10:15:58.502Z,22464.00
2022-09-20T10:16:58.531Z,23264.00
2022-09-20T10:17:58.462Z,50656.00
2022-09-20T10:18:58.428Z,20672.00
2022-09-20T10:19:58.443Z,17832.00
2022-09-20T10:20:58.462Z,50240.00
2022-09-20T10:21:58.416Z,52416.00
2022-09-20T10:23:30.148Z,38528.00
2022-09-20T10:24:03.639Z,59680.00
2022-09-20T10:24:59.373Z,62880.00
2022-09-20T10:25:58.409Z,29216.00
2022-09-20T10:26:58.346Z,30624.00
2022-09-20T10:27:58.344Z,40768.00
2022-09-20T10:28:58.331Z,13668.00
2022-09-20T10:29:58.316Z,11904.00
2022-09-20T10:30:58.469Z,11888.00
2022-09-20T10:31:58.299Z,12808.00
2022-09-20T10:32:58.289Z,11292.00
2022-09-20T10:33:58.289Z,11056.00
2022-09-20T10:34:58.270Z,11468.00
2022-09-20T10:35:58.309Z,12020.00
2022-09-20T10:36:58.235Z,45312.00
2022-09-20T10:37:58.221Z,46528.00
2022-09-20T10:38:58.214Z,45056.00
2022-09-20T10:39:58.268Z,14716.00
2022-09-20T10:40:58.190Z,14320.00
2022-09-20T10:41:58.179Z,47040.00
2022-09-20T10:42:58.188Z,22304.00
2022-09-20T10:44:02.809Z,36512.00
2022-09-20T10:44:59.190Z,43904.00
2022-09-20T10:46:59.154Z,45536.00
2022-09-20T10:47:58.121Z,47648.00
2022-09-20T10:48:58.125Z,51328.00
2022-09-20T10:49:58.109Z,34752.00
2022-09-20T10:50:58.112Z,59776.00
2022-09-20T10:51:58.077Z,60544.00
2022-09-20T10:52:58.052Z,34656.00
2022-09-20T10:53:58.059Z,55008.00
2022-09-20T10:54:58.049Z,47744.00
2022-09-20T10:55:58.057Z,27776.00
2022-09-20T10:56:58.019Z,32256.00
2022-09-20T10:57:58.007Z,45440.00
2022-09-20T10:58:58.001Z,44704.00
2022-09-20T10:59:58.021Z,44896.00
2022-09-20T11:00:58.100Z,45088.00
2022-09-20T11:01:57.991Z,46272.00
2022-09-20T11:02:57.962Z,48128.00
2022-09-20T11:03:57.960Z,48352.00
2022-09-20T11:04:57.925Z,43712.00
2022-09-20T11:05:57.937Z,25792.00
2022-09-20T11:06:57.889Z,50176.00
2022-09-20T11:07:57.909Z,60224.00
2022-09-20T11:08:57.896Z,63488.00
2022-09-20T11:09:57.876Z,61536.00
2022-09-20T11:10:57.971Z,57760.00
2022-09-20T11:11:57.860Z,57760.00
2022-09-20T11:12:57.846Z,59136.00
2022-09-20T11:13:57.854Z,58304.00
2022-09-20T11:14:57.820Z,59008.00
2022-09-20T11:15:57.853Z,56896.00
2022-09-20T11:16:57.917Z,47360.00
2022-09-20T11:17:57.782Z,49888.00
2022-09-20T11:18:57.778Z,52288.00
2022-09-20T11:19:57.768Z,52064.00
2022-09-20T11:20:57.783Z,49824.00
2022-09-20T11:21:57.744Z,46208.00
2022-09-20T11:22:57.715Z,36416.00
2022-09-20T11:23:57.711Z,34080.00
2022-09-20T11:24:57.708Z,27360.00
2022-09-20T11:25:57.730Z,20384.00
2022-09-20T11:26:57.724Z,13000.00
2022-09-20T11:27:57.683Z,8400.00
2022-09-20T11:28:57.681Z,9236.00
2022-09-20T11:29:57.665Z,9704.00
2022-09-20T11:30:57.688Z,10116.00
2022-09-20T11:31:57.750Z,10568.00
2022-09-20T11:32:57.629Z,9872.00
2022-09-20T11:33:57.601Z,8712.00
2022-09-20T11:34:57.602Z,7652.00
2022-09-20T11:35:57.627Z,7200.00
2022-09-20T11:36:57.606Z,6848.00
2022-09-20T11:37:57.544Z,6812.00
2022-09-20T11:38:57.533Z,6312.00
2022-09-20T11:39:57.584Z,5492.00
2022-09-20T11:40:57.561Z,4688.00
2022-09-20T11:41:57.513Z,4032.00
2022-09-20T11:42:57.512Z,3560.00
2022-09-20T11:43:57.496Z,3316.00
2022-09-20T11:44:57.477Z,3176.00
2022-09-20T11:45:57.599Z,3084.00
2022-09-20T11:46:57.460Z,3024.00
2022-09-20T11:47:57.443Z,2984.00
2022-09-20T11:48:57.448Z,2988.00
2022-09-20T11:49:57.416Z,3020.00
2022-09-20T11:50:57.447Z,3072.00
2022-09-20T11:51:57.397Z,3136.00
2022-09-20T11:52:57.401Z,3200.00
2022-09-20T11:53:57.374Z,3264.00
2022-09-20T11:54:57.360Z,3348.00
2022-09-20T11:55:57.387Z,3452.00
2022-09-20T11:56:57.339Z,3572.00
2022-09-20T11:57:57.335Z,3712.00
2022-09-20T11:58:57.320Z,3876.00
2022-09-20T11:59:57.324Z,4040.00
2022-09-20T12:00:57.341Z,4200.00
2022-09-20T12:01:57.325Z,4356.00
2022-09-20T12:02:57.374Z,4504.00
2022-09-20T12:04:20.558Z,4664.00
2022-09-20T12:04:58.306Z,4832.00
2022-09-20T12:05:57.301Z,4992.00
2022-09-20T12:06:57.240Z,5164.00
2022-09-20T12:07:57.221Z,5360.00
2022-09-20T12:08:57.201Z,5572.00
2022-09-20T12:09:57.176Z,5776.00
2022-09-20T12:10:57.215Z,6020.00
2022-09-20T12:11:57.153Z,6344.00
2022-09-20T12:12:57.163Z,6716.00
2022-09-20T12:13:57.153Z,7136.00
2022-09-20T12:14:57.140Z,7620.00
2022-09-20T12:15:57.169Z,8172.00
2022-09-20T12:16:57.209Z,8864.00
2022-09-20T12:17:57.096Z,9744.00
2022-09-20T12:18:57.086Z,10812.00
2022-09-20T12:19:57.071Z,11972.00
2022-09-20T12:20:57.108Z,13144.00
2022-09-20T12:21:57.059Z,14268.00
2022-09-20T12:22:57.031Z,15292.00